Time;durP1;ratioP1;P1;durP2;ratioP2;P2;SDS_P1;SDS_P2;PMS_P1;PMS_P2;Temp;Humidity;BMP_temperature;BMP_pressure;BME280_temperature;BME280_humidity;BME280_pressure;Samples;Min_cycle;Max_cycle;Signal;HPM_P1;HPM_P2
2022/12/01 00:00:54;;;;;;;;;;;7.30;99.00;;;;;;5067038;28;19923;-75
2022/12/01 00:03:20;;;;;;;;;;;7.30;99.00;;;;;;5067349;28;19916;-75
2022/12/01 00:05:45;;;;;;;;;;;7.30;99.00;;;;;;5067766;28;20003;-75
2022/12/01 00:08:10;;;;;;;;;;;7.30;99.00;;;;;;5068133;28;20003;-74
2022/12/01 00:10:36;;;;;;;;;;;7.30;99.00;;;;;;5067076;28;19991;-74
2022/12/01 00:13:03;;;;;;;;;;;7.30;99.00;;;;;;5067801;28;19987;-75
2022/12/01 00:15:33;;;;;;;;;;;7.30;99.00;;;;;;5068555;28;19947;-75
2022/12/01 00:17:59;;;;;;;;;;;7.30;99.00;;;;;;5067106;28;19916;-75
2022/12/01 00:20:24;;;;;;;;;;;7.30;99.00;;;;;;5066967;28;19930;-74
2022/12/01 00:22:50;;;;;;;;;;;7.30;99.00;;;;;;5067720;28;19913;-74
2022/12/01 00:25:17;;;;;;;;;;;7.30;99.00;;;;;;5067576;28;19942;-75
2022/12/01 00:27:46;;;;;;;;;;;7.30;99.00;;;;;;5066756;28;19951;-75
2022/12/01 00:30:11;;;;;;;;;;;7.30;99.00;;;;;;5066518;28;20613;-75
2022/12/01 00:32:37;;;;;;;;;;;7.30;99.00;;;;;;5054804;28;19920;-75
2022/12/01 00:35:03;;;;;;;;;;;7.30;99.00;;;;;;5046246;28;19912;-75
2022/12/01 00:37:30;;;;;;;;;;;7.30;99.00;;;;;;5049378;28;19913;-75
2022/12/01 00:39:56;;;;;;;;;;;7.30;99.00;;;;;;5061200;28;19912;-74
2022/12/01 00:42:21;;;;;;;;;;;7.30;99.00;;;;;;5067753;28;19919;-75
2022/12/01 00:44:47;;;;;;;;;;;7.30;99.00;;;;;;5067243;28;19916;-75
2022/12/01 00:47:12;;;;;;;;;;;7.30;99.00;;;;;;5068140;28;19908;-74
2022/12/01 00:49:38;;;;;;;;;;;7.30;99.00;;;;;;5066954;28;19909;-75
2022/12/01 00:52:04;;;;;;;;;;;7.30;99.00;;;;;;5066868;28;20032;-75
2022/12/01 00:54:32;;;;;;;;;;;7.30;99.00;;;;;;5066139;28;19966;-74
2022/12/01 00:57:01;;;;;;;;;;;7.30;99.00;;;;;;5066747;28;20011;-75
2022/12/01 00:59:26;;;;;;;;;;;7.30;99.00;;;;;;5064361;28;19913;-74
2022/12/01 01:01:52;;;;;;;;;;;7.30;99.00;;;;;;5066625;28;20624;-75
2022/12/01 01:04:18;;;;;;;;;;;7.30;99.00;;;;;;5066357;28;19999;-75
2022/12/01 01:06:43;;;;;;;;;;;7.30;99.00;;;;;;5066040;28;19956;-75
2022/12/01 01:09:09;;;;;;;;;;;7.30;99.00;;;;;;5053107;28;19920;-75
2022/12/01 01:11:35;;;;;;;;;;;7.30;99.00;;;;;;5045850;28;19966;-75
2022/12/01 01:14:00;;;;;;;;;;;7.30;99.00;;;;;;5046796;28;19920;-75
2022/12/01 01:16:26;;;;;;;;;;;7.30;99.00;;;;;;5078721;28;20004;-75
2022/12/01 01:18:52;;;;;;;;;;;7.20;99.00;;;;;;5046828;28;20404;-74
2022/12/01 01:21:19;;;;;;;;;;;7.30;99.00;;;;;;5054840;28;20015;-75
2022/12/01 01:23:45;;;;;;;;;;;7.20;99.00;;;;;;5067055;28;19920;-74
2022/12/01 01:26:11;;;;;;;;;;;7.30;99.00;;;;;;5063767;28;19963;-74
2022/12/01 01:28:37;;;;;;;;;;;7.20;99.00;;;;;;5065339;28;19920;-74
2022/12/01 01:31:06;;;;;;;;;;;7.30;99.00;;;;;;5065417;28;20000;-74
2022/12/01 01:33:31;;;;;;;;;;;7.30;99.10;;;;;;5046503;28;19923;-75
2022/12/01 01:35:58;;;;;;;;;;;7.30;99.00;;;;;;5046728;28;20003;-74
2022/12/01 01:38:24;;;;;;;;;;;7.20;99.00;;;;;;5052718;28;20614;-75
2022/12/01 01:40:49;;;;;;;;;;;7.30;99.30;;;;;;5050655;28;19913;-75
2022/12/01 01:43:16;;;;;;;;;;;7.30;99.10;;;;;;5050821;28;20421;-75
2022/12/01 01:45:42;;;;;;;;;;;7.30;99.00;;;;;;5049910;28;20380;-75
2022/12/01 01:48:08;;;;;;;;;;;7.30;99.00;;;;;;5050676;28;19912;-75
2022/12/01 01:50:33;;;;;;;;;;;7.30;99.00;;;;;;5050132;28;19912;-75
2022/12/01 01:53:06;;;;;;;;;;;7.30;99.00;;;;;;5082841;28;20324;-75
2022/12/01 01:55:32;;;;;;;;;;;7.30;99.00;;;;;;5077336;28;19998;-75
2022/12/01 01:57:58;;;;;;;;;;;7.30;99.00;;;;;;5089521;28;20353;-75
2022/12/01 02:00:24;;;;;;;;;;;7.30;99.00;;;;;;5059735;28;19961;-75
2022/12/01 02:02:50;;;;;;;;;;;7.20;99.00;;;;;;5069912;28;20397;-75
2022/12/01 02:05:16;;;;;;;;;;;7.30;99.00;;;;;;5069933;28;20014;-75
2022/12/01 02:07:41;;;;;;;;;;;7.30;99.00;;;;;;5070212;28;20564;-75
2022/12/01 02:10:09;;;;;;;;;;;7.30;99.00;;;;;;5069752;28;19970;-75
2022/12/01 02:12:53;;;;;;;;;;;7.20;99.00;;;;;;5071545;28;20395;-75
2022/12/01 02:15:31;;;;;;;;;;;7.30;99.00;;;;;;5070149;28;20014;-74
2022/12/01 02:18:05;;;;;;;;;;;7.30;99.00;;;;;;5069384;28;20456;-75
2022/12/01 02:20:49;;;;;;;;;;;7.20;99.00;;;;;;5069461;28;19943;-76
2022/12/01 02:23:27;;;;;;;;;;;7.30;99.10;;;;;;5075910;28;19916;-75
2022/12/01 02:26:06;;;;;;;;;;;7.20;99.00;;;;;;5090195;28;19962;-75
2022/12/01 02:28:52;;;;;;;;;;;7.20;99.00;;;;;;5084069;28;19912;-75
2022/12/01 02:31:17;;;;;;;;;;;7.20;99.00;;;;;;5071100;28;19912;-75
2022/12/01 02:33:46;;;;;;;;;;;7.20;99.00;;;;;;5051638;28;19970;-75
2022/12/01 02:36:14;;;;;;;;;;;7.20;99.00;;;;;;5049923;28;19924;-75
2022/12/01 02:38:47;;;;;;;;;;;7.20;99.00;;;;;;5072606;28;19958;-75
2022/12/01 02:41:18;;;;;;;;;;;7.20;99.00;;;;;;5069352;28;20389;-75
2022/12/01 02:43:47;;;;;;;;;;;7.20;99.00;;;;;;5068079;28;19919;-75
2022/12/01 02:46:15;;;;;;;;;;;7.20;99.00;;;;;;5069529;28;20415;-74
2022/12/01 02:48:43;;;;;;;;;;;7.20;99.00;;;;;;5062697;28;19912;-74
2022/12/01 02:51:11;;;;;;;;;;;7.20;99.00;;;;;;5067429;28;19919;-75
2022/12/01 02:53:37;;;;;;;;;;;7.20;99.00;;;;;;5073403;28;19920;-75
2022/12/01 02:56:05;;;;;;;;;;;7.20;99.00;;;;;;5089559;28;19912;-75
2022/12/01 02:58:31;;;;;;;;;;;7.20;99.00;;;;;;5081294;28;19991;-75
2022/12/01 03:01:19;;;;;;;;;;;7.20;99.00;;;;;;5077635;28;19946;-75
2022/12/01 03:04:03;;;;;;;;;;;7.20;99.00;;;;;;5062588;28;19978;-75
2022/12/01 03:06:29;;;;;;;;;;;7.20;99.00;;;;;;5068580;28;20007;-75
2022/12/01 03:09:16;;;;;;;;;;;7.20;99.00;;;;;;5056209;28;20004;-75
2022/12/01 03:11:59;;;;;;;;;;;7.20;99.00;;;;;;5067077;28;20057;-75
2022/12/01 03:14:28;;;;;;;;;;;7.20;99.00;;;;;;5068823;28;19924;-75
2022/12/01 03:16:56;;;;;;;;;;;7.20;99.00;;;;;;5068994;28;19965;-75
2022/12/01 03:19:40;;;;;;;;;;;7.20;99.00;;;;;;5068633;28;19970;-76
2022/12/01 03:22:11;;;;;;;;;;;7.20;99.00;;;;;;5068917;28;19940;-75
2022/12/01 03:24:37;;;;;;;;;;;7.20;99.00;;;;;;5068328;28;20442;-74
2022/12/01 03:27:04;;;;;;;;;;;7.20;99.00;;;;;;5073344;28;19912;-75
2022/12/01 03:29:35;;;;;;;;;;;7.20;99.00;;;;;;5068280;28;19918;-75
2022/12/01 03:32:22;;;;;;;;;;;7.20;99.30;;;;;;5059528;28;20039;-75
2022/12/01 03:34:55;;;;;;;;;;;7.20;99.00;;;;;;5048670;28;19912;-75
2022/12/01 03:37:26;;;;;;;;;;;7.20;99.00;;;;;;5048544;28;19919;-75
2022/12/01 03:39:56;;;;;;;;;;;7.20;99.00;;;;;;5048058;28;20506;-75
2022/12/01 03:42:23;;;;;;;;;;;7.20;99.00;;;;;;5047715;28;19913;-75
2022/12/01 03:44:52;;;;;;;;;;;7.20;99.00;;;;;;5080162;28;19916;-75
2022/12/01 03:47:19;;;;;;;;;;;7.20;99.00;;;;;;5088700;28;19909;-74
2022/12/01 03:49:46;;;;;;;;;;;7.20;99.00;;;;;;5088220;28;19912;-74
2022/12/01 03:52:29;;;;;;;;;;;7.20;99.00;;;;;;5089033;28;19919;-74
2022/12/01 03:54:58;;;;;;;;;;;7.20;99.00;;;;;;5088248;28;19939;-75
2022/12/01 03:57:26;;;;;;;;;;;7.20;99.00;;;;;;5088331;28;19918;-75
2022/12/01 03:59:52;;;;;;;;;;;7.20;99.00;;;;;;5073862;28;19931;-75
2022/12/01 04:02:17;;;;;;;;;;;7.20;99.00;;;;;;5066458;28;20533;-75
2022/12/01 04:04:43;;;;;;;;;;;7.20;99.00;;;;;;5067705;28;19908;-75
2022/12/01 04:07:12;;;;;;;;;;;7.20;99.00;;;;;;5067916;28;19924;-75
2022/12/01 04:09:38;;;;;;;;;;;7.20;99.00;;;;;;5067099;28;19966;-74
2022/12/01 04:14:48;;;;;;;;;;;7.20;99.00;;;;;;5066953;28;20416;-75
2022/12/01 04:17:14;;;;;;;;;;;7.20;99.00;;;;;;5066254;28;19920;-75
2022/12/01 04:19:39;;;;;;;;;;;7.20;99.00;;;;;;5067054;28;19958;-75
2022/12/01 04:22:05;;;;;;;;;;;7.20;99.00;;;;;;5066981;28;19924;-75
2022/12/01 04:24:30;;;;;;;;;;;7.20;99.00;;;;;;5067386;28;19970;-75
2022/12/01 04:26:56;;;;;;;;;;;7.20;99.00;;;;;;5066271;28;19920;-75
2022/12/01 04:29:22;;;;;;;;;;;7.20;99.00;;;;;;5066376;28;19913;-75
2022/12/01 04:31:47;;;;;;;;;;;7.10;99.00;;;;;;5065617;28;20514;-75
2022/12/01 04:34:13;;;;;;;;;;;7.20;99.10;;;;;;5070270;28;20622;-75
2022/12/01 04:36:38;;;;;;;;;;;7.20;99.10;;;;;;5061528;28;20011;-74
2022/12/01 04:39:04;;;;;;;;;;;7.10;99.00;;;;;;5085941;28;19916;-75
2022/12/01 04:41:29;;;;;;;;;;;7.20;99.00;;;;;;5066813;28;19912;-75
2022/12/01 04:43:55;;;;;;;;;;;7.20;99.10;;;;;;5067393;28;19923;-75
2022/12/01 04:46:21;;;;;;;;;;;7.20;99.00;;;;;;5067523;28;19913;-75
2022/12/01 04:48:47;;;;;;;;;;;7.10;99.00;;;;;;5060646;28;19974;-75
2022/12/01 04:51:12;;;;;;;;;;;7.10;99.00;;;;;;5075020;28;20358;-75
2022/12/01 04:53:38;;;;;;;;;;;7.20;99.00;;;;;;5067285;28;19962;-75
2022/12/01 04:56:03;;;;;;;;;;;7.20;99.00;;;;;;5067546;28;19958;-75
2022/12/01 04:58:29;;;;;;;;;;;7.10;99.00;;;;;;5066804;28;19951;-75
2022/12/01 05:01:00;;;;;;;;;;;7.10;99.00;;;;;;5066907;28;19920;-75
2022/12/01 05:03:25;;;;;;;;;;;7.10;99.00;;;;;;5058391;28;19912;-76
2022/12/01 05:05:59;;;;;;;;;;;7.10;99.00;;;;;;5064485;28;20011;-75
2022/12/01 05:08:25;;;;;;;;;;;7.20;99.10;;;;;;5065335;28;19974;-75
2022/12/01 05:10:53;;;;;;;;;;;7.10;99.00;;;;;;5066551;28;19924;-74
2022/12/01 05:13:19;;;;;;;;;;;7.10;99.00;;;;;;5065212;28;19912;-75
2022/12/01 05:15:44;;;;;;;;;;;7.10;99.00;;;;;;5066863;28;19942;-75
2022/12/01 05:18:10;;;;;;;;;;;7.10;99.00;;;;;;5067042;28;20288;-75
2022/12/01 05:23:19;;;;;;;;;;;7.10;99.00;;;;;;5067333;28;19923;-75
2022/12/01 05:25:44;;;;;;;;;;;7.10;99.00;;;;;;5067004;28;19916;-75
2022/12/01 05:28:10;;;;;;;;;;;7.10;99.00;;;;;;5068236;28;19957;-75
2022/12/01 05:30:35;;;;;;;;;;;7.10;99.00;;;;;;5076030;28;19913;-75
2022/12/01 05:33:02;;;;;;;;;;;7.10;99.00;;;;;;5049211;28;19936;-75
2022/12/01 05:35:27;;;;;;;;;;;7.10;99.00;;;;;;5046326;28;20019;-75
2022/12/01 05:37:53;;;;;;;;;;;7.10;99.00;;;;;;5046516;28;20389;-75
2022/12/01 05:40:18;;;;;;;;;;;7.10;99.00;;;;;;5064358;28;19966;-75
2022/12/01 05:42:44;;;;;;;;;;;7.10;99.00;;;;;;5066746;28;19913;-75
2022/12/01 05:45:09;;;;;;;;;;;7.10;99.00;;;;;;5066508;28;19915;-75
2022/12/01 05:47:35;;;;;;;;;;;7.10;99.00;;;;;;5066700;28;19966;-75
2022/12/01 05:50:00;;;;;;;;;;;7.10;99.00;;;;;;5066206;28;19919;-75
2022/12/01 05:52:26;;;;;;;;;;;7.10;99.00;;;;;;5066392;28;19912;-75
2022/12/01 05:54:51;;;;;;;;;;;7.10;99.00;;;;;;5066516;28;19924;-75
2022/12/01 05:57:17;;;;;;;;;;;7.10;99.00;;;;;;5067739;28;20412;-75
2022/12/01 05:59:42;;;;;;;;;;;7.10;99.00;;;;;;5069976;28;19915;-75
2022/12/01 06:02:08;;;;;;;;;;;7.10;99.00;;;;;;5061711;28;20536;-75
2022/12/01 06:04:33;;;;;;;;;;;7.10;99.00;;;;;;5066231;28;19913;-75
2022/12/01 06:06:59;;;;;;;;;;;7.10;99.00;;;;;;5066658;28;19912;-75
2022/12/01 06:09:24;;;;;;;;;;;7.10;99.00;;;;;;5050371;28;20437;-75
2022/12/01 06:11:50;;;;;;;;;;;7.10;99.00;;;;;;5050343;28;19973;-76
2022/12/01 06:14:15;;;;;;;;;;;7.10;99.00;;;;;;5066230;28;20389;-75
2022/12/01 06:16:40;;;;;;;;;;;7.10;99.00;;;;;;5066236;28;19913;-75
2022/12/01 06:19:06;;;;;;;;;;;7.10;99.00;;;;;;5066317;28;19913;-75
2022/12/01 06:21:31;;;;;;;;;;;7.10;99.00;;;;;;5064905;28;19963;-75
2022/12/01 06:23:57;;;;;;;;;;;7.10;99.00;;;;;;5066467;28;19908;-75
2022/12/01 06:26:22;;;;;;;;;;;7.10;98.90;;;;;;5069844;28;20430;-75
2022/12/01 06:28:48;;;;;;;;;;;7.10;98.90;;;;;;5070865;28;19951;-75
2022/12/01 06:31:13;;;;;;;;;;;7.10;98.90;;;;;;5067042;28;19912;-75
2022/12/01 06:33:39;;;;;;;;;;;7.10;98.90;;;;;;5049735;28;19916;-75
2022/12/01 06:36:05;;;;;;;;;;;7.00;98.90;;;;;;5049725;28;20027;-75
2022/12/01 06:38:34;;;;;;;;;;;7.10;98.90;;;;;;5049934;28;19917;-75
2022/12/01 06:41:00;;;;;;;;;;;7.00;98.90;;;;;;5049539;28;20537;-75
2022/12/01 06:43:25;;;;;;;;;;;7.10;99.00;;;;;;5049582;28;19919;-75
2022/12/01 06:45:51;;;;;;;;;;;7.10;98.90;;;;;;5065855;28;19916;-76
2022/12/01 06:48:16;;;;;;;;;;;7.00;98.90;;;;;;5069136;28;20618;-75
2022/12/01 06:50:42;;;;;;;;;;;7.00;98.90;;;;;;5068763;28;19923;-75
2022/12/01 06:53:08;;;;;;;;;;;7.10;99.00;;;;;;5069515;28;20012;-75
2022/12/01 06:55:35;;;;;;;;;;;7.10;98.90;;;;;;5069594;28;20011;-75
2022/12/01 06:58:00;;;;;;;;;;;7.10;98.90;;;;;;5069862;28;19912;-75
2022/12/01 07:00:26;;;;;;;;;;;7.10;98.90;;;;;;5064040;28;19919;-75
2022/12/01 07:02:51;;;;;;;;;;;7.10;98.90;;;;;;5070394;28;19920;-75
2022/12/01 07:05:17;;;;;;;;;;;7.00;98.90;;;;;;5081017;28;19920;-75
2022/12/01 07:07:42;;;;;;;;;;;7.10;98.90;;;;;;5087347;28;19923;-75
2022/12/01 07:10:08;;;;;;;;;;;7.10;98.90;;;;;;5068817;28;19916;-75
2022/12/01 07:12:34;;;;;;;;;;;7.00;98.90;;;;;;5069204;28;20443;-74
2022/12/01 07:15:00;;;;;;;;;;;7.10;99.00;;;;;;5069438;28;19948;-74
2022/12/01 07:17:26;;;;;;;;;;;7.10;98.90;;;;;;5069221;28;19912;-74
2022/12/01 07:19:52;;;;;;;;;;;7.00;98.90;;;;;;5067175;28;20479;-75
2022/12/01 07:22:17;;;;;;;;;;;7.00;98.90;;;;;;5070818;28;19919;-75
2022/12/01 07:24:43;;;;;;;;;;;7.00;98.90;;;;;;5068325;28;20007;-75
2022/12/01 07:27:08;;;;;;;;;;;7.10;99.20;;;;;;5068467;28;20424;-75
2022/12/01 07:29:34;;;;;;;;;;;7.10;98.90;;;;;;5068681;28;20455;-75
2022/12/01 07:31:59;;;;;;;;;;;7.00;98.90;;;;;;5059545;28;19944;-75
2022/12/01 07:34:25;;;;;;;;;;;7.00;98.90;;;;;;5048646;28;19923;-75
2022/12/01 07:36:50;;;;;;;;;;;7.10;99.00;;;;;;5055996;28;19916;-75
2022/12/01 07:39:16;;;;;;;;;;;7.10;99.00;;;;;;5073902;28;19912;-75
2022/12/01 07:41:41;;;;;;;;;;;7.00;98.90;;;;;;5068528;28;19977;-75
2022/12/01 07:44:08;;;;;;;;;;;7.10;98.90;;;;;;5068749;28;19912;-75
2022/12/01 07:46:34;;;;;;;;;;;7.00;98.90;;;;;;5068509;28;19958;-75
2022/12/01 07:48:59;;;;;;;;;;;7.10;99.00;;;;;;5066052;28;20474;-75
2022/12/01 07:51:25;;;;;;;;;;;7.00;98.90;;;;;;5066368;28;19912;-75
2022/12/01 07:53:51;;;;;;;;;;;7.00;98.90;;;;;;5069288;28;19925;-75
2022/12/01 07:56:17;;;;;;;;;;;7.00;98.90;;;;;;5068376;28;19917;-75
2022/12/01 07:58:43;;;;;;;;;;;7.10;99.00;;;;;;5068161;28;20380;-75
2022/12/01 08:01:12;;;;;;;;;;;7.00;98.90;;;;;;5066054;28;19920;-75
2022/12/01 08:03:38;;;;;;;;;;;7.00;99.00;;;;;;5048204;28;20238;-75
2022/12/01 08:06:04;;;;;;;;;;;7.00;99.00;;;;;;5048329;28;19919;-74
2022/12/01 08:08:31;;;;;;;;;;;7.00;98.90;;;;;;5060978;28;19925;-75
2022/12/01 08:11:00;;;;;;;;;;;7.00;98.90;;;;;;5067915;28;19959;-75
2022/12/01 08:13:26;;;;;;;;;;;7.10;98.90;;;;;;5068226;28;19947;-74
2022/12/01 08:15:52;;;;;;;;;;;7.00;98.90;;;;;;5067631;28;19950;-74
2022/12/01 08:18:17;;;;;;;;;;;7.00;98.90;;;;;;5068078;28;19947;-75
2022/12/01 08:20:43;;;;;;;;;;;7.00;98.90;;;;;;5067572;28;19912;-74
2022/12/01 08:23:08;;;;;;;;;;;7.00;98.90;;;;;;5067681;28;19912;-75
2022/12/01 08:25:34;;;;;;;;;;;7.00;98.90;;;;;;5085413;28;20589;-74
2022/12/01 08:27:59;;;;;;;;;;;7.00;98.90;;;;;;5085838;28;20576;-75
2022/12/01 08:30:25;;;;;;;;;;;7.00;98.90;;;;;;5067602;28;19959;-74
2022/12/01 08:32:54;;;;;;;;;;;7.00;98.90;;;;;;5051812;28;20012;-75
2022/12/01 08:35:20;;;;;;;;;;;7.00;98.90;;;;;;5047594;28;20571;-74
2022/12/01 08:37:45;;;;;;;;;;;7.00;98.90;;;;;;5051960;28;20030;-75
2022/12/01 08:40:11;;;;;;;;;;;7.00;98.90;;;;;;5067078;28;20336;-74
2022/12/01 08:42:37;;;;;;;;;;;7.00;98.90;;;;;;5087604;28;19912;-75
2022/12/01 08:45:02;;;;;;;;;;;7.00;98.90;;;;;;5087412;28;19916;-74
2022/12/01 08:47:28;;;;;;;;;;;7.00;98.90;;;;;;5087241;28;20318;-74
2022/12/01 08:49:54;;;;;;;;;;;7.00;98.90;;;;;;5077825;28;19913;-75
2022/12/01 08:52:19;;;;;;;;;;;7.00;98.90;;;;;;5067498;28;19913;-75
2022/12/01 08:54:45;;;;;;;;;;;7.00;98.90;;;;;;5067144;28;19956;-75
2022/12/01 08:57:11;;;;;;;;;;;7.00;98.90;;;;;;5068240;28;20015;-75
2022/12/01 08:59:36;;;;;;;;;;;7.00;98.90;;;;;;5060316;28;19952;-75
2022/12/01 09:02:02;;;;;;;;;;;7.00;98.90;;;;;;5066565;28;20010;-75
2022/12/01 09:04:28;;;;;;;;;;;7.00;98.90;;;;;;5067115;28;19959;-75
2022/12/01 09:06:55;;;;;;;;;;;7.00;98.90;;;;;;5067245;28;20369;-74
2022/12/01 09:09:21;;;;;;;;;;;7.00;98.90;;;;;;5066664;28;20421;-75
2022/12/01 09:11:47;;;;;;;;;;;7.00;98.90;;;;;;5065472;28;20495;-75
2022/12/01 09:14:14;;;;;;;;;;;7.10;99.00;;;;;;5067897;28;19920;-75
2022/12/01 09:16:40;;;;;;;;;;;7.00;99.00;;;;;;5066288;28;19951;-75
2022/12/01 09:19:06;;;;;;;;;;;7.00;99.20;;;;;;5066483;28;20483;-75
2022/12/01 09:21:32;;;;;;;;;;;7.00;98.90;;;;;;5066753;28;19917;-75
2022/12/01 09:23:59;;;;;;;;;;;7.00;98.90;;;;;;5067045;28;19908;-75
2022/12/01 09:26:24;;;;;;;;;;;7.10;98.90;;;;;;5066644;28;19920;-75
2022/12/01 09:28:54;;;;;;;;;;;7.00;98.90;;;;;;5072739;28;19965;-75
2022/12/01 09:31:22;;;;;;;;;;;7.10;98.90;;;;;;5070273;28;20012;-75
2022/12/01 09:33:47;;;;;;;;;;;7.10;98.90;;;;;;5066835;28;19920;-75
2022/12/01 09:36:13;;;;;;;;;;;7.00;98.90;;;;;;5066525;28;19908;-75
2022/12/01 09:38:38;;;;;;;;;;;7.10;98.90;;;;;;5057048;28;19913;-75
2022/12/01 09:41:05;;;;;;;;;;;7.00;98.90;;;;;;5045897;28;20285;-75
2022/12/01 09:43:44;;;;;;;;;;;7.00;98.90;;;;;;5046450;28;19931;-75
2022/12/01 09:46:17;;;;;;;;;;;7.00;98.90;;;;;;5046248;28;20007;-74
2022/12/01 09:48:44;;;;;;;;;;;7.10;98.90;;;;;;5066528;28;19966;-74
2022/12/01 09:51:17;;;;;;;;;;;7.10;98.90;;;;;;5070284;28;19919;-74
2022/12/01 09:53:43;;;;;;;;;;;7.10;98.90;;;;;;5066413;28;19909;-74
2022/12/01 09:56:16;;;;;;;;;;;7.00;98.80;;;;;;5066530;28;19916;-75
2022/12/01 09:58:42;;;;;;;;;;;7.10;98.80;;;;;;5071991;28;19978;-74
2022/12/01 10:01:14;;;;;;;;;;;7.00;98.80;;;;;;5073153;28;20431;-75
2022/12/01 10:03:45;;;;;;;;;;;7.00;98.80;;;;;;5069609;28;19923;-75
2022/12/01 10:06:23;;;;;;;;;;;7.10;98.90;;;;;;5090455;28;19981;-75
2022/12/01 10:08:55;;;;;;;;;;;7.00;98.80;;;;;;5079346;28;19912;-75
2022/12/01 10:11:26;;;;;;;;;;;7.00;98.80;;;;;;5069932;28;20025;-74
2022/12/01 10:13:51;;;;;;;;;;;7.10;98.90;;;;;;5069980;28;19916;-74
2022/12/01 10:16:20;;;;;;;;;;;7.10;98.80;;;;;;5070008;28;19920;-75
2022/12/01 10:18:45;;;;;;;;;;;7.00;98.80;;;;;;5070128;28;19944;-75
2022/12/01 10:21:11;;;;;;;;;;;7.10;98.80;;;;;;5087776;28;19916;-75
2022/12/01 10:23:38;;;;;;;;;;;7.10;98.80;;;;;;5090332;28;19912;-74
2022/12/01 10:26:17;;;;;;;;;;;7.10;98.70;;;;;;5090048;28;19912;-75
2022/12/01 10:28:47;;;;;;;;;;;7.10;98.70;;;;;;5088046;28;19912;-75
2022/12/01 10:31:16;;;;;;;;;;;7.10;98.70;;;;;;5069905;28;20401;-74
2022/12/01 10:33:54;;;;;;;;;;;7.20;98.70;;;;;;5047521;28;19917;-75
2022/12/01 10:36:20;;;;;;;;;;;7.20;98.70;;;;;;5059448;28;19924;-75
2022/12/01 10:38:45;;;;;;;;;;;7.20;98.70;;;;;;5068124;28;20446;-75
2022/12/01 10:41:13;;;;;;;;;;;7.20;98.70;;;;;;5068132;28;19912;-74
2022/12/01 10:43:41;;;;;;;;;;;7.20;98.70;;;;;;5069618;28;19908;-74
2022/12/01 10:46:20;;;;;;;;;;;7.20;98.70;;;;;;5069248;28;20023;-74
2022/12/01 10:48:53;;;;;;;;;;;7.20;98.60;;;;;;5069386;28;19921;-74
2022/12/01 10:51:21;;;;;;;;;;;7.20;98.60;;;;;;5069332;28;19982;-74
2022/12/01 10:53:47;;;;;;;;;;;7.20;98.60;;;;;;5070502;28;20326;-75
2022/12/01 10:56:19;;;;;;;;;;;7.30;98.60;;;;;;5069058;28;19962;-75
2022/12/01 10:58:52;;;;;;;;;;;7.30;98.60;;;;;;5075112;28;19916;-75
2022/12/01 11:01:21;;;;;;;;;;;7.30;98.60;;;;;;5069254;28;19912;-75
2022/12/01 11:03:51;;;;;;;;;;;7.30;98.60;;;;;;5049003;28;20011;-75
2022/12/01 11:06:20;;;;;;;;;;;7.30;98.60;;;;;;5049049;28;19940;-75
2022/12/01 11:08:50;;;;;;;;;;;7.30;98.60;;;;;;5050012;28;20389;-75
2022/12/01 11:11:33;;;;;;;;;;;7.30;98.50;;;;;;5087054;28;19919;-75
2022/12/01 11:14:00;;;;;;;;;;;7.30;98.50;;;;;;5089264;28;20284;-75
2022/12/01 11:16:33;;;;;;;;;;;7.30;98.50;;;;;;5077481;28;19919;-75
2022/12/01 11:19:28;;;;;;;;;;;7.30;98.50;;;;;;5068662;28;19998;-75
2022/12/01 11:21:55;;;;;;;;;;;7.30;98.50;;;;;;5083015;28;19955;-75
2022/12/01 11:24:41;;;;;;;;;;;7.30;98.50;;;;;;5088806;28;20003;-75
2022/12/01 11:27:15;;;;;;;;;;;7.40;98.50;;;;;;5088238;28;20016;-75
2022/12/01 11:29:41;;;;;;;;;;;7.40;98.40;;;;;;5058099;28;19913;-75
2022/12/01 11:32:21;;;;;;;;;;;7.40;98.40;;;;;;5068194;28;19941;-75
2022/12/01 11:34:55;;;;;;;;;;;7.40;98.40;;;;;;5077176;28;19920;-75
2022/12/01 11:37:22;;;;;;;;;;;7.40;98.40;;;;;;5089055;28;19912;-75
2022/12/01 11:39:48;;;;;;;;;;;7.50;98.40;;;;;;5069350;28;19908;-74
2022/12/01 11:42:20;;;;;;;;;;;7.50;98.30;;;;;;5068152;28;19916;-75
2022/12/01 11:44:48;;;;;;;;;;;7.50;98.30;;;;;;5067892;28;19923;-75
2022/12/01 11:47:14;;;;;;;;;;;7.50;98.30;;;;;;5068172;28;19908;-76
2022/12/01 11:49:41;;;;;;;;;;;7.50;98.30;;;;;;5065214;28;20316;-75
2022/12/01 11:52:26;;;;;;;;;;;7.50;98.30;;;;;;5070670;28;20607;-75
2022/12/01 11:55:15;;;;;;;;;;;7.50;98.30;;;;;;5066987;28;20388;-75
2022/12/01 11:57:44;;;;;;;;;;;7.50;98.30;;;;;;5065442;28;19921;-75
2022/12/01 12:00:16;;;;;;;;;;;7.50;98.30;;;;;;5073440;28;19924;-75
2022/12/01 12:02:48;;;;;;;;;;;7.50;98.30;;;;;;5053577;28;19920;-75
2022/12/01 12:05:22;;;;;;;;;;;7.50;98.30;;;;;;5048001;28;20343;-75
2022/12/01 12:08:00;;;;;;;;;;;7.60;98.30;;;;;;5051854;28;20003;-75
2022/12/01 12:10:29;;;;;;;;;;;7.60;98.30;;;;;;5079856;28;19963;-75
2022/12/01 12:12:57;;;;;;;;;;;7.50;98.30;;;;;;5048016;28;20557;-75
2022/12/01 12:15:22;;;;;;;;;;;7.60;98.30;;;;;;5047884;28;19921;-75
2022/12/01 12:17:57;;;;;;;;;;;7.60;98.30;;;;;;5047796;28;19913;-75
2022/12/01 12:20:38;;;;;;;;;;;7.60;98.30;;;;;;5047288;28;19920;-75
2022/12/01 12:23:15;;;;;;;;;;;7.60;98.20;;;;;;5046993;28;19940;-75
2022/12/01 12:25:53;;;;;;;;;;;7.60;98.20;;;;;;5078511;28;19941;-76
2022/12/01 12:28:21;;;;;;;;;;;7.60;98.30;;;;;;5087554;28;19973;-76
2022/12/01 12:30:47;;;;;;;;;;;7.60;98.20;;;;;;5075071;28;19912;-76
2022/12/01 12:33:25;;;;;;;;;;;7.60;98.20;;;;;;5048287;28;19908;-76
2022/12/01 12:36:05;;;;;;;;;;;7.60;98.20;;;;;;5064244;28;19916;-76
2022/12/01 12:38:50;;;;;;;;;;;7.60;98.20;;;;;;5064733;28;20365;-75
2022/12/01 12:41:30;;;;;;;;;;;7.60;98.20;;;;;;5070955;28;19989;-74
2022/12/01 12:43:56;;;;;;;;;;;7.60;98.20;;;;;;5087669;28;19912;-75
2022/12/01 12:46:47;;;;;;;;;;;7.60;98.20;;;;;;5078402;28;20548;-75
2022/12/01 12:49:19;;;;;;;;;;;7.60;98.20;;;;;;5047117;28;19913;-75
2022/12/01 12:51:53;;;;;;;;;;;7.60;98.10;;;;;;5047236;28;19916;-75
2022/12/01 12:54:28;;;;;;;;;;;7.60;98.20;;;;;;5047249;28;19917;-75
2022/12/01 12:56:57;;;;;;;;;;;7.60;98.20;;;;;;5047364;28;19972;-75
2022/12/01 12:59:44;;;;;;;;;;;7.60;98.10;;;;;;5083243;28;19912;-75
2022/12/01 13:02:19;;;;;;;;;;;7.60;98.20;;;;;;5056563;28;19983;-75
2022/12/01 13:04:49;;;;;;;;;;;7.60;98.20;;;;;;5047238;28;19958;-75
2022/12/01 13:07:14;;;;;;;;;;;7.60;98.20;;;;;;5046731;28;19917;-75
2022/12/01 13:09:45;;;;;;;;;;;7.60;98.20;;;;;;5046610;28;19913;-76
2022/12/01 13:12:14;;;;;;;;;;;7.60;98.20;;;;;;5047033;28;20400;-75
2022/12/01 13:14:42;;;;;;;;;;;7.60;98.40;;;;;;5058766;28;19920;-76
2022/12/01 13:17:15;;;;;;;;;;;7.60;98.20;;;;;;5068718;28;19966;-75
2022/12/01 13:19:41;;;;;;;;;;;7.70;98.20;;;;;;5066844;28;19916;-75
2022/12/01 13:22:09;;;;;;;;;;;7.60;98.10;;;;;;5078984;28;19916;-75
2022/12/01 13:24:34;;;;;;;;;;;7.60;98.10;;;;;;5087047;28;19976;-75
2022/12/01 13:27:20;;;;;;;;;;;7.60;98.10;;;;;;5086917;28;19916;-75
2022/12/01 13:29:47;;;;;;;;;;;7.60;98.20;;;;;;5083236;28;19912;-75
2022/12/01 13:32:31;;;;;;;;;;;7.60;98.10;;;;;;5066456;28;20299;-75
2022/12/01 13:34:57;;;;;;;;;;;7.60;98.10;;;;;;5068514;28;19916;-75
2022/12/01 13:37:30;;;;;;;;;;;7.60;98.10;;;;;;5070897;28;19916;-75
2022/12/01 13:40:05;;;;;;;;;;;7.60;98.10;;;;;;5050339;28;19952;-75
2022/12/01 13:42:33;;;;;;;;;;;7.60;98.10;;;;;;5050505;28;19912;-75
2022/12/01 13:45:00;;;;;;;;;;;7.60;98.10;;;;;;5087162;28;19959;-75
2022/12/01 13:47:46;;;;;;;;;;;7.60;98.10;;;;;;5090294;28;19916;-75
2022/12/01 13:50:30;;;;;;;;;;;7.60;98.10;;;;;;5068046;28;19912;-76
2022/12/01 13:53:08;;;;;;;;;;;7.60;98.10;;;;;;5071186;28;19997;-75
2022/12/01 13:55:51;;;;;;;;;;;7.60;98.10;;;;;;5070536;28;20704;-75
2022/12/01 13:58:21;;;;;;;;;;;7.60;98.10;;;;;;5072141;28;20018;-75
2022/12/01 14:00:46;;;;;;;;;;;7.60;98.10;;;;;;5078337;28;19920;-75
2022/12/01 14:03:12;;;;;;;;;;;7.60;98.10;;;;;;5051442;28;20277;-75
2022/12/01 14:05:52;;;;;;;;;;;7.60;98.10;;;;;;5069690;28;20617;-75
2022/12/01 14:08:25;;;;;;;;;;;7.60;98.10;;;;;;5070617;28;19912;-75
2022/12/01 14:10:53;;;;;;;;;;;7.60;98.10;;;;;;5065539;28;19912;-75
2022/12/01 14:13:20;;;;;;;;;;;7.60;98.10;;;;;;5070153;28;20025;-76
2022/12/01 14:15:51;;;;;;;;;;;7.60;98.10;;;;;;5069812;28;19944;-75
2022/12/01 14:18:16;;;;;;;;;;;7.60;98.00;;;;;;5070185;28;19912;-75
2022/12/01 14:20:44;;;;;;;;;;;7.60;98.00;;;;;;5069833;28;19916;-75
2022/12/01 14:23:12;;;;;;;;;;;7.60;98.00;;;;;;5067821;28;20388;-75
2022/12/01 14:25:38;;;;;;;;;;;7.60;98.00;;;;;;5069864;28;19992;-75
2022/12/01 14:28:11;;;;;;;;;;;7.60;98.00;;;;;;5068342;28;20285;-75
2022/12/01 14:33:23;;;;;;;;;;;7.50;98.00;;;;;;5068652;28;19917;-76
2022/12/01 14:35:49;;;;;;;;;;;7.50;98.00;;;;;;5068702;28;19917;-75
2022/12/01 14:38:14;;;;;;;;;;;7.50;98.00;;;;;;5068148;28;19928;-75
2022/12/01 14:40:40;;;;;;;;;;;7.50;98.00;;;;;;5066511;28;20486;-75
2022/12/01 14:46:01;;;;;;;;;;;7.50;98.00;;;;;;5066167;28;19966;-75
2022/12/01 14:48:32;;;;;;;;;;;7.50;98.00;;;;;;5066200;28;19913;-76
2022/12/01 14:51:08;;;;;;;;;;;7.50;98.00;;;;;;5067842;28;19912;-76